Terminal Aerodrome Forecast
Issued by NWS

Home | Current Version | Previous Version | Text Only | Print | Product List | Glossary On
Versions: 1 2 3 4 5 6 7 8 9 10 11 12 13 14 15 16 17 18 19 20 21 22 23 24 25 26 27 28 29 30 31
575
FTUS43 KDVN 181525 AAE
TAFCID
TAF AMD
KCID 181525Z 1815/1912 03015G21KT 2SM -FZRA BR OVC015
     FM182000 34015G22KT 3SM -SN BR OVC012
     FM190000 33012G19KT P6SM BKN020
     FM190400 31010KT P6SM BKN030=

USA.gov is the U.S. government's official web portal to all federal, state and local government web resources and services.